Time;durP1;ratioP1;P1;durP2;ratioP2;P2;SDS_P1;SDS_P2;PMS_P1;PMS_P2;Temp;Humidity;BMP_temperature;BMP_pressure;BME280_temperature;BME280_humidity;BME280_pressure;Samples;Min_cycle;Max_cycle;Signal;HPM_P1;HPM_P2
2023/12/11 00:00:15;;;;;;;3.35;1.60;;;;;;;16.38;88.64;101148.56;10371799;28;97206;-88
2023/12/11 00:05:19;;;;;;;4.95;2.33;;;;;;;16.20;89.34;101146.81;10363914;28;99772;-88
2023/12/11 00:10:26;;;;;;;4.55;1.77;;;;;;;16.11;90.26;101152.56;10380524;28;96794;-87
2023/12/11 00:15:36;;;;;;;1.90;1.42;;;;;;;16.22;89.46;101147.59;10385013;28;96982;-88
2023/12/11 00:20:40;;;;;;;2.45;1.30;;;;;;;16.21;88.85;101138.78;10374180;28;97588;-87
2023/12/11 00:25:49;;;;;;;1.93;1.33;;;;;;;16.28;87.29;101129.56;10374042;28;96825;-87
2023/12/11 00:30:56;;;;;;;3.25;1.20;;;;;;;16.37;86.32;101128.25;10380970;28;96640;-87
2023/12/11 00:36:04;;;;;;;3.00;1.10;;;;;;;16.45;86.69;101126.97;10370277;28;96977;-87
2023/12/11 00:41:08;;;;;;;3.22;1.45;;;;;;;16.39;87.01;101129.91;10374684;28;96826;-88
2023/12/11 00:46:15;;;;;;;2.00;1.30;;;;;;;16.39;87.06;101132.56;10391800;28;97273;-87
2023/12/11 00:51:21;;;;;;;5.88;1.30;;;;;;;16.25;87.91;101129.72;10387857;28;97247;-88
2023/12/11 00:56:25;;;;;;;4.60;1.52;;;;;;;16.30;87.90;101125.06;10375387;28;96869;-87
2023/12/11 01:01:32;;;;;;;2.28;1.33;;;;;;;16.25;88.08;101121.75;10375433;28;98089;-87
2023/12/11 01:06:39;;;;;;;4.38;1.67;;;;;;;16.25;88.12;101112.94;10374861;28;97255;-87
2023/12/11 01:11:43;;;;;;;3.50;1.52;;;;;;;16.16;88.74;101106.28;10373646;28;96970;-88
2023/12/11 01:16:52;;;;;;;2.80;1.55;;;;;;;16.23;88.34;101097.06;10374365;28;96744;-88
2023/12/11 01:21:57;;;;;;;2.15;1.50;;;;;;;16.21;88.20;101096.28;10376049;28;97006;-88
2023/12/11 01:27:02;;;;;;;2.58;1.20;;;;;;;16.22;88.12;101084.72;10373622;28;96914;-87
2023/12/11 01:32:12;;;;;;;2.38;1.25;;;;;;;16.22;88.21;101084.72;10370308;28;97927;-87
2023/12/11 01:37:22;;;;;;;2.58;1.25;;;;;;;16.19;88.06;101081.34;10377388;28;96737;-87
2023/12/11 01:42:29;;;;;;;1.45;1.23;;;;;;;16.31;87.84;101070.09;10372053;28;96864;-88
2023/12/11 01:47:39;;;;;;;3.08;1.55;;;;;;;16.17;87.86;101076.13;10372542;28;99108;-87
2023/12/11 01:52:52;;;;;;;2.65;1.35;;;;;;;16.18;87.79;101077.84;10379482;28;98172;-87
2023/12/11 01:57:59;;;;;;;2.50;1.55;;;;;;;16.18;87.81;101074.31;10368466;28;98069;-87
2023/12/11 02:03:06;;;;;;;3.97;1.40;;;;;;;16.16;88.19;101068.22;10370708;28;96980;-87
2023/12/11 02:08:16;;;;;;;1.92;1.10;;;;;;;16.24;87.80;101061.59;10370952;28;97148;-88
2023/12/11 02:13:22;;;;;;;1.33;1.20;;;;;;;16.19;88.52;101062.75;10372880;28;97125;-88
2023/12/11 02:18:29;;;;;;;2.20;1.60;;;;;;;16.19;87.85;101052.13;10373001;28;97214;-86
2023/12/11 02:23:41;;;;;;;1.67;1.30;;;;;;;16.15;88.10;101055.91;10369858;28;97072;-86
2023/12/11 02:28:46;;;;;;;1.48;1.10;;;;;;;16.17;88.24;101068.16;10368713;28;97037;-86
2023/12/11 02:33:51;;;;;;;1.45;1.15;;;;;;;16.16;88.17;101057.59;10371974;28;96824;-86
2023/12/11 02:38:55;;;;;;;4.15;1.60;;;;;;;15.88;89.62;101058.09;10369231;28;97706;-86
2023/12/11 02:44:00;;;;;;;3.33;1.70;;;;;;;15.98;89.24;101059.38;10373114;28;96700;-87
2023/12/11 02:49:04;;;;;;;1.98;1.38;;;;;;;16.03;89.00;101054.69;10371275;28;98833;-87
2023/12/11 02:54:11;;;;;;;1.70;1.33;;;;;;;15.97;89.39;101052.34;10369795;28;96829;-87
2023/12/11 02:59:18;;;;;;;2.80;1.17;;;;;;;15.97;89.63;101048.81;10342885;28;96701;-88
2023/12/11 03:04:25;;;;;;;1.90;1.38;;;;;;;15.97;89.66;101052.34;10371512;28;96861;-88
2023/12/11 03:09:30;;;;;;;3.08;1.42;;;;;;;16.01;89.25;101055.72;10371073;28;98805;-87
2023/12/11 03:14:38;;;;;;;1.85;1.15;;;;;;;15.86;90.22;101054.66;10366087;28;97540;-87
2023/12/11 03:19:42;;;;;;;3.47;1.40;;;;;;;15.94;89.76;101056.00;10377488;28;96794;-88
2023/12/11 03:24:52;;;;;;;4.30;1.45;;;;;;;15.93;89.88;101048.97;10371865;28;98721;-87
2023/12/11 03:30:02;;;;;;;3.00;1.40;;;;;;;15.93;89.79;101053.41;10370465;28;96853;-88
2023/12/11 03:35:08;;;;;;;2.13;1.33;;;;;;;16.02;89.45;101044.16;10376445;28;96802;-87
2023/12/11 03:40:15;;;;;;;2.88;1.50;;;;;;;15.90;89.76;101048.28;10369096;28;100242;-88
2023/12/11 03:45:22;;;;;;;3.13;1.70;;;;;;;15.96;89.60;101049.78;10369289;28;97037;-88
2023/12/11 03:50:33;;;;;;;2.15;1.50;;;;;;;15.88;90.01;101045.69;10369752;28;97019;-88
2023/12/11 03:55:36;;;;;;;3.47;1.52;;;;;;;15.91;90.36;101044.66;10372173;28;100065;-87
2023/12/11 04:00:44;;;;;;;1.88;1.35;;;;;;;15.96;89.96;101036.50;10364631;28;100184;-87
2023/12/11 04:05:49;;;;;;;2.75;1.50;;;;;;;15.94;89.91;101033.94;10357219;28;96802;-87
2023/12/11 04:10:54;;;;;;;3.53;1.33;;;;;;;15.99;89.98;101020.41;10371107;28;96751;-88
2023/12/11 04:16:03;;;;;;;3.25;1.08;;;;;;;15.91;89.95;101019.00;10368285;28;96796;-87
2023/12/11 04:21:09;;;;;;;1.88;1.27;;;;;;;15.89;90.13;101010.25;10368962;28;97002;-88
2023/12/11 04:26:16;;;;;;;2.58;1.30;;;;;;;15.91;90.34;101021.66;10373009;28;96911;-87
2023/12/11 04:31:23;;;;;;;2.67;1.40;;;;;;;15.73;90.83;101004.00;10366977;28;100379;-86
2023/12/11 04:36:27;;;;;;;2.97;1.60;;;;;;;15.57;91.35;100992.41;10367175;28;98802;-86
2023/12/11 04:41:34;;;;;;;3.00;1.35;;;;;;;15.58;92.34;100994.09;10368851;28;96595;-87
2023/12/11 04:46:42;;;;;;;2.97;1.70;;;;;;;15.54;91.95;100999.63;10373328;28;98463;-88
2023/12/11 04:51:47;;;;;;;4.40;1.70;;;;;;;15.60;91.62;100980.75;10374489;28;96743;-88
2023/12/11 04:56:51;;;;;;;2.55;1.55;;;;;;;15.55;91.58;100985.44;10369580;28;96738;-87
2023/12/11 05:02:01;;;;;;;1.80;1.40;;;;;;;15.49;91.43;100985.75;10379442;28;96933;-87
2023/12/11 05:07:07;;;;;;;2.47;1.58;;;;;;;15.55;91.41;100988.94;10367213;28;97102;-86
2023/12/11 05:12:11;;;;;;;3.03;1.40;;;;;;;15.58;91.23;100983.50;10373164;28;96763;-87
2023/12/11 05:17:18;;;;;;;2.05;1.30;;;;;;;15.56;90.74;100973.91;10368859;28;98425;-86
2023/12/11 05:22:23;;;;;;;2.47;1.48;;;;;;;15.65;91.43;100978.72;10373708;28;97826;-87
2023/12/11 05:27:33;;;;;;;2.72;1.30;;;;;;;15.72;90.54;100977.50;10372125;28;96804;-86
2023/12/11 05:32:41;;;;;;;2.80;1.63;;;;;;;15.60;91.10;100978.97;10374824;28;96737;-87
2023/12/11 05:37:46;;;;;;;2.40;1.60;;;;;;;15.66;91.09;100988.44;10374452;28;97122;-86
2023/12/11 05:42:51;;;;;;;4.15;1.50;;;;;;;15.54;91.21;100979.28;10373943;28;96764;-86
2023/12/11 05:47:58;;;;;;;1.60;1.50;;;;;;;15.52;91.03;100980.28;10374688;28;96610;-86
2023/12/11 05:53:03;;;;;;;3.65;1.63;;;;;;;15.49;91.28;100983.09;10381744;28;97643;-86
2023/12/11 05:58:10;;;;;;;2.17;1.48;;;;;;;15.54;90.88;100987.25;10375347;28;96813;-86
2023/12/11 06:03:17;;;;;;;3.50;1.92;;;;;;;15.55;91.06;100986.28;10370999;28;98377;-87
2023/12/11 06:08:22;;;;;;;3.33;1.40;;;;;;;15.55;91.37;100986.28;10384011;28;96815;-86
2023/12/11 06:13:26;;;;;;;1.88;1.30;;;;;;;15.57;91.34;100987.09;10375403;28;97957;-87
2023/12/11 06:18:35;;;;;;;2.80;1.27;;;;;;;15.56;90.90;100982.69;10373133;28;98827;-86
2023/12/11 06:23:40;;;;;;;2.03;1.50;;;;;;;15.53;91.43;100988.16;10376652;28;96839;-87
2023/12/11 06:28:47;;;;;;;2.58;1.30;;;;;;;15.64;91.36;100987.63;10376518;28;98412;-86
2023/12/11 06:33:56;;;;;;;3.22;1.40;;;;;;;15.55;91.28;100988.94;10374199;28;96752;-86
2023/12/11 06:39:01;;;;;;;2.53;1.42;;;;;;;15.57;90.86;100997.69;10372927;28;96785;-85
2023/12/11 06:44:08;;;;;;;2.05;1.48;;;;;;;15.51;91.42;100994.50;10389673;28;96836;-86
2023/12/11 06:49:16;;;;;;;2.03;1.40;;;;;;;15.52;91.50;100983.81;10374354;28;96892;-86
2023/12/11 06:54:22;;;;;;;1.23;0.95;;;;;;;15.49;91.04;100993.69;10372736;28;97358;-86
2023/12/11 06:59:27;;;;;;;2.15;1.20;;;;;;;15.43;91.49;100997.50;10364396;28;97379;-86
2023/12/11 07:04:36;;;;;;;2.00;1.53;;;;;;;15.24;92.68;100996.63;10372019;28;96926;-85
2023/12/11 07:09:46;;;;;;;2.08;1.50;;;;;;;15.27;91.89;100998.28;10372726;28;96787;-87
2023/12/11 07:14:51;;;;;;;2.80;1.77;;;;;;;15.32;91.87;100999.78;10373924;28;97158;-86
2023/12/11 07:19:58;;;;;;;2.65;1.90;;;;;;;15.40;91.94;101002.09;10379025;28;97111;-86
2023/12/11 07:25:04;;;;;;;2.22;1.48;;;;;;;15.39;91.96;101003.03;10373146;28;97149;-86
2023/12/11 07:30:11;;;;;;;2.97;1.40;;;;;;;15.44;91.73;101011.63;10416380;28;97522;-86
2023/12/11 07:35:18;;;;;;;2.00;1.30;;;;;;;15.38;91.62;101011.91;10416317;28;96873;-87
2023/12/11 07:40:23;;;;;;;4.45;1.85;;;;;;;15.42;92.10;101010.84;10394522;28;96931;-86
2023/12/11 07:45:28;;;;;;;2.28;1.60;;;;;;;15.37;91.88;101015.50;10373969;28;97134;-85
2023/12/11 07:50:35;;;;;;;6.63;1.95;;;;;;;15.42;91.67;101026.75;10386457;28;96634;-86
2023/12/11 07:55:43;;;;;;;2.00;1.73;;;;;;;15.38;91.75;101025.16;10390168;28;97323;-87
2023/12/11 08:00:51;;;;;;;3.17;2.00;;;;;;;15.47;92.05;101030.91;10373057;28;96807;-86
2023/12/11 08:05:58;;;;;;;1.60;1.50;;;;;;;15.51;91.93;101032.47;10370175;28;96984;-86
2023/12/11 08:11:03;;;;;;;2.17;1.73;;;;;;;15.60;91.72;101041.78;10413753;28;96721;-87
2023/12/11 08:16:08;;;;;;;3.50;1.60;;;;;;;15.56;91.78;101051.66;10399538;28;96998;-87
2023/12/11 08:21:18;;;;;;;2.22;1.70;;;;;;;15.64;91.39;101051.31;10376464;28;96660;-87
2023/12/11 08:26:23;;;;;;;1.92;1.55;;;;;;;15.71;91.30;101047.44;10394823;28;96806;-86
2023/12/11 08:31:29;;;;;;;1.88;1.35;;;;;;;15.60;92.17;101044.44;10379944;28;96649;-86
2023/12/11 08:36:34;;;;;;;;;;;;;;;15.44;93.29;101048.75;10379737;28;97623;-85
2023/12/11 08:41:39;;;;;;;2.05;1.38;;;;;;;15.40;92.95;101040.09;10393548;28;97122;-86
2023/12/11 08:46:44;;;;;;;3.47;1.70;;;;;;;15.48;92.80;101043.22;10421025;28;97059;-86
2023/12/11 08:51:52;;;;;;;3.70;2.40;;;;;;;15.64;92.39;101046.00;10420594;28;96882;-86
2023/12/11 08:56:55;;;;;;;8.05;4.53;;;;;;;15.53;92.71;101033.25;10421445;28;97424;-86
2023/12/11 09:01:59;;;;;;;8.18;3.83;;;;;;;15.62;92.72;101046.09;10420453;28;96803;-86
2023/12/11 09:07:09;;;;;;;9.75;4.90;;;;;;;15.84;92.00;101048.56;10420485;28;97126;-86
2023/12/11 09:12:14;;;;;;;11.23;5.22;;;;;;;15.94;91.96;101055.16;10398760;28;96656;-86
2023/12/11 09:17:35;;;;;;;5.70;3.72;;;;;;;15.97;91.47;101044.38;10408269;28;96533;-87
2023/12/11 09:22:47;;;;;;;5.80;3.45;;;;;;;16.21;91.11;101050.25;10387857;28;100700;-87
2023/12/11 09:27:51;;;;;;;4.35;3.08;;;;;;;16.56;90.60;101050.25;10372502;28;96903;-86
2023/12/11 09:32:59;;;;;;;6.32;4.40;;;;;;;16.65;89.68;101052.41;10393325;28;96790;-86
2023/12/11 09:38:06;;;;;;;10.30;5.25;;;;;;;16.71;88.88;101053.88;10419865;28;96809;-86
2023/12/11 09:43:11;;;;;;;18.70;10.90;;;;;;;16.82;88.46;101056.88;10380883;28;97122;-86
2023/12/11 09:48:16;;;;;;;17.02;9.73;;;;;;;17.00;87.75;101046.09;10381822;28;96589;-86
2023/12/11 09:53:23;;;;;;;7.95;4.10;;;;;;;17.22;86.16;101042.28;10419603;28;96814;-85
2023/12/11 09:58:31;;;;;;;6.22;2.72;;;;;;;17.19;86.04;101040.66;10418999;28;96804;-85
2023/12/11 10:03:35;;;;;;;6.30;2.70;;;;;;;17.30;85.70;101053.38;10399534;28;96896;-86
2023/12/11 10:08:45;;;;;;;2.75;1.80;;;;;;;17.22;84.55;101040.50;10452527;22;97233;-87
2023/12/11 10:13:49;;;;;;;3.85;1.83;;;;;;;17.40;83.92;101028.84;10460491;27;96647;-86
2023/12/11 10:18:57;;;;;;;2.60;1.52;;;;;;;17.66;83.92;101032.72;10456553;27;96721;-86
2023/12/11 10:24:05;;;;;;;5.40;2.22;;;;;;;17.98;82.88;101029.97;10462911;27;96680;-86
2023/12/11 10:29:19;;;;;;;6.30;3.83;;;;;;;18.21;82.97;101028.66;10459676;27;96845;-86
2023/12/11 10:34:41;;;;;;;7.07;3.08;;;;;;;18.12;82.17;101024.69;10459359;27;96634;-86
2023/12/11 10:39:56;;;;;;;4.28;2.25;;;;;;;18.13;81.58;101021.09;10467097;27;96569;-87
2023/12/11 10:45:00;;;;;;;;;;;;;;;18.05;80.16;101011.84;10459031;27;97590;-91
2023/12/11 13:32:32;;;;;;;1.60;0.80;;;;;;;20.96;65.72;100765.44;10435781;27;96863;-89
2023/12/11 13:38:12;;;;;;;;;;;;;;;;;;;;;
2023/12/11 13:43:32;;;;;;;2.13;0.73;;;;;;;20.93;68.61;100763.00;10457519;27;97044;-87
2023/12/11 13:48:52;;;;;;;;;;;;;;;;;;;;;
2023/12/11 13:54:13;;;;;;;1.13;0.60;;;;;;;20.59;65.58;100737.84;10495925;27;96879;-86
2023/12/11 13:59:33;;;;;;;1.15;0.52;;;;;;;20.48;64.38;100724.41;10463419;27;97862;-86
2023/12/11 14:04:39;;;;;;;2.20;0.82;;;;;;;20.44;64.87;100722.94;10491316;27;96886;-86
2023/12/11 14:09:45;;;;;;;1.02;0.60;;;;;;;20.50;65.11;100708.28;10479922;27;96961;-87
2023/12/11 14:14:54;;;;;;;1.30;0.80;;;;;;;20.50;65.13;100709.13;10479641;27;96802;-86
2023/12/11 14:20:02;;;;;;;1.20;0.70;;;;;;;20.52;64.91;100704.50;10480507;27;100628;-86
2023/12/11 14:25:21;;;;;;;2.45;1.40;;;;;;;20.63;63.49;100691.22;10479218;27;96763;-86
2023/12/11 14:30:28;;;;;;;2.38;1.38;;;;;;;20.68;61.83;100672.13;10476680;27;96977;-86
2023/12/11 14:35:44;;;;;;;7.57;2.13;;;;;;;20.70;62.71;100683.59;10463815;27;96891;-88
2023/12/11 14:40:58;;;;;;;;;;;;;;;;;;;;;
2023/12/11 14:46:20;;;;;;;4.80;2.00;;;;;;;21.17;61.42;100689.75;10436078;27;96913;-88
2023/12/11 14:51:27;;;;;;;3.10;1.52;;;;;;;21.15;61.70;100691.69;10448204;27;98187;-90
2023/12/11 14:56:49;;;;;;;;;;;;;;;;;;;;;
2023/12/11 15:02:04;;;;;;;2.88;1.80;;;;;;;22.47;58.71;100693.63;10454303;27;98804;-89
2023/12/11 15:07:30;;;;;;;3.70;1.65;;;;;;;22.23;57.38;100698.31;10461799;27;96794;-91
2023/12/11 15:12:59;;;;;;;2.60;1.55;;;;;;;22.10;60.92;100710.13;10447448;27;98139;-87
2023/12/11 15:18:06;;;;;;;3.95;1.65;;;;;;;21.47;61.79;100716.88;10446545;27;98183;-84
2023/12/11 15:23:11;;;;;;;1.80;1.48;;;;;;;20.87;62.79;100721.50;10432960;27;96750;-84
2023/12/11 15:28:15;;;;;;;3.17;1.45;;;;;;;20.49;63.93;100725.28;10423160;27;97611;-87
2023/12/11 15:33:20;;;;;;;3.73;2.10;;;;;;;20.15;64.35;100730.34;10442263;27;97018;-85
2023/12/11 15:38:23;;;;;;;3.35;1.80;;;;;;;19.87;64.92;100727.94;10445975;27;101296;-84
2023/12/11 15:43:29;;;;;;;2.20;1.50;;;;;;;19.60;65.07;100727.16;10442282;27;96892;-85
2023/12/11 15:48:33;;;;;;;3.65;1.70;;;;;;;19.54;66.05;100719.59;10425602;27;96920;-85
2023/12/11 15:53:37;;;;;;;3.88;1.80;;;;;;;19.39;66.50;100725.09;10428940;27;96826;-85
2023/12/11 15:58:40;;;;;;;3.78;1.63;;;;;;;19.13;66.82;100733.03;10443250;27;96778;-84
2023/12/11 16:03:45;;;;;;;2.88;1.77;;;;;;;19.04;67.64;100730.16;10428831;27;97087;-83
2023/12/11 16:08:49;;;;;;;3.50;2.30;;;;;;;18.88;68.43;100719.66;10403441;27;98805;-82
2023/12/11 16:13:52;;;;;;;5.65;2.28;;;;;;;18.82;68.86;100712.03;10388890;27;97079;-84
2023/12/11 16:18:57;;;;;;;3.38;1.92;;;;;;;18.78;68.42;100715.03;10379266;28;96923;-84
2023/12/11 16:24:01;;;;;;;5.07;2.50;;;;;;;18.82;68.43;100716.50;10415607;28;96815;-85
2023/12/11 16:29:04;;;;;;;3.72;2.53;;;;;;;18.85;68.28;100725.16;10420718;28;96968;-85
2023/12/11 16:34:09;;;;;;;6.15;2.85;;;;;;;18.71;69.07;100711.91;10406145;27;97151;-83
2023/12/11 16:39:13;;;;;;;5.00;2.83;;;;;;;18.76;69.11;100719.59;10381442;27;97291;-83
2023/12/11 16:44:16;;;;;;;4.82;2.95;;;;;;;18.66;69.70;100711.31;10408319;28;97325;-79
2023/12/11 16:49:22;;;;;;;5.13;2.60;;;;;;;18.64;70.07;100707.06;10402230;27;99092;-80
2023/12/11 16:54:26;;;;;;;3.25;2.33;;;;;;;18.67;69.33;100702.38;10410063;28;97548;-80
2023/12/11 16:59:29;;;;;;;3.08;2.25;;;;;;;18.62;70.03;100708.97;10389806;27;97189;-81
2023/12/11 17:04:35;;;;;;;5.25;2.70;;;;;;;18.56;69.49;100706.72;10402822;28;96970;-79
2023/12/11 17:09:39;;;;;;;4.78;1.80;;;;;;;18.63;68.51;100702.66;10391841;28;96854;-79
2023/12/11 17:14:43;;;;;;;5.25;1.98;;;;;;;18.61;68.62;100705.44;10409514;28;96782;-83
2023/12/11 17:19:48;;;;;;;3.35;1.60;;;;;;;18.57;69.02;100692.44;10402577;27;96836;-85
2023/12/11 17:24:52;;;;;;;3.58;1.58;;;;;;;18.64;68.49;100693.75;10396557;28;97012;-85
2023/12/11 17:29:56;;;;;;;3.80;1.77;;;;;;;18.60;68.61;100686.88;10394625;27;96816;-85
2023/12/11 17:35:04;;;;;;;3.78;1.98;;;;;;;18.56;69.02;100688.91;10377346;28;96906;-85
2023/12/11 17:40:10;;;;;;;3.65;2.15;;;;;;;18.55;69.30;100686.34;10377035;28;97036;-86
2023/12/11 17:45:13;;;;;;;5.15;2.17;;;;;;;18.52;69.51;100691.88;10378300;28;97424;-85
2023/12/11 17:50:18;;;;;;;2.30;1.48;;;;;;;18.60;68.99;100689.56;10376913;28;96710;-85
2023/12/11 17:55:21;;;;;;;3.42;2.10;;;;;;;18.58;68.96;100686.13;10377014;28;96708;-85
2023/12/11 18:00:25;;;;;;;2.88;1.90;;;;;;;18.53;69.49;100680.25;10389876;28;97143;-85
2023/12/11 18:05:30;;;;;;;4.97;2.70;;;;;;;18.26;71.18;100676.69;10381396;27;97033;-85
2023/12/11 18:10:33;;;;;;;6.03;3.35;;;;;;;18.23;71.33;100664.41;10380292;28;97208;-86
2023/12/11 18:15:37;;;;;;;7.93;4.30;;;;;;;18.17;71.91;100667.47;10383685;28;97303;-85
2023/12/11 18:20:43;;;;;;;6.43;3.60;;;;;;;17.92;73.29;100668.19;10385286;28;96889;-86
2023/12/11 18:25:46;;;;;;;3.13;2.15;;;;;;;18.06;72.84;100678.81;10424570;27;96583;-85
2023/12/11 18:30:50;;;;;;;6.05;2.80;;;;;;;18.09;72.39;100683.06;10425134;28;96906;-85
2023/12/11 18:35:55;;;;;;;5.22;2.03;;;;;;;18.09;72.39;100683.06;10416643;27;97296;-85
2023/12/11 18:40:59;;;;;;;4.45;2.75;;;;;;;17.98;73.74;100680.25;10382818;28;97560;-87
2023/12/11 18:46:02;;;;;;;3.97;2.73;;;;;;;18.00;73.27;100686.34;10382841;28;96674;-86
2023/12/11 18:51:07;;;;;;;4.50;2.13;;;;;;;18.12;72.53;100681.06;10382664;28;96935;-86
2023/12/11 18:56:19;;;;;;;4.90;1.80;;;;;;;18.18;72.37;100687.81;10382970;28;96886;-86
2023/12/11 19:01:23;;;;;;;2.90;2.00;;;;;;;18.17;72.51;100678.13;10402602;28;97101;-86
2023/12/11 19:06:29;;;;;;;4.82;2.63;;;;;;;18.21;72.39;100676.13;10423753;28;96789;-85
2023/12/11 19:11:32;;;;;;;4.18;2.45;;;;;;;18.16;72.67;100681.72;10402573;28;96802;-86
2023/12/11 19:16:36;;;;;;;5.03;3.03;;;;;;;18.11;73.02;100697.16;10396173;28;97460;-85
2023/12/11 19:21:41;;;;;;;4.38;3.08;;;;;;;18.01;73.75;100686.25;10403098;27;96694;-87
2023/12/11 19:26:44;;;;;;;6.47;3.35;;;;;;;18.01;73.70;100670.25;10387148;28;96731;-86
2023/12/11 19:31:48;;;;;;;6.15;3.35;;;;;;;17.94;74.03;100670.75;10423947;28;97400;-86
2023/12/11 19:36:53;;;;;;;8.37;3.07;;;;;;;17.87;74.61;100672.94;10422780;28;96997;-86
2023/12/11 19:41:56;;;;;;;5.00;3.10;;;;;;;17.81;75.05;100661.81;10422579;28;96778;-86
2023/12/11 19:47:00;;;;;;;6.95;3.50;;;;;;;17.92;74.53;100659.31;10389224;28;97372;-85
2023/12/11 19:52:06;;;;;;;6.47;3.47;;;;;;;17.84;74.99;100657.16;10380748;28;96918;-86
2023/12/11 19:57:09;;;;;;;4.13;2.35;;;;;;;17.95;74.67;100651.16;10399774;28;97481;-86
2023/12/11 20:02:13;;;;;;;8.00;2.35;;;;;;;18.00;74.47;100630.41;10403714;27;97310;-86
2023/12/11 20:07:18;;;;;;;4.03;2.00;;;;;;;17.96;74.46;100635.09;10380088;28;96755;-87
2023/12/11 20:12:22;;;;;;;7.13;4.10;;;;;;;18.10;74.20;100637.72;10379987;28;96839;-84
2023/12/11 20:17:25;;;;;;;3.90;2.17;;;;;;;18.00;74.61;100639.25;10411095;28;96757;-84
2023/12/11 20:22:31;;;;;;;3.00;2.40;;;;;;;17.84;75.53;100643.84;10379478;28;97353;-85
2023/12/11 20:27:35;;;;;;;3.85;2.60;;;;;;;17.72;76.21;100631.31;10379752;28;97215;-85
2023/12/11 20:32:38;;;;;;;7.57;3.00;;;;;;;17.76;76.08;100631.97;10378526;28;96814;-85
2023/12/11 20:37:43;;;;;;;7.13;2.10;;;;;;;17.80;75.82;100629.00;10379751;28;96685;-86
2023/12/11 20:42:47;;;;;;;4.22;1.95;;;;;;;17.89;75.60;100636.44;10378933;28;96601;-85
2023/12/11 20:47:50;;;;;;;2.80;1.73;;;;;;;17.99;75.12;100624.22;10379229;28;97744;-86
2023/12/11 20:52:55;;;;;;;2.95;1.92;;;;;;;18.07;74.74;100615.75;10379532;28;97561;-86
2023/12/11 20:57:59;;;;;;;3.55;1.85;;;;;;;18.16;74.40;100631.13;10378302;28;97426;-85
2023/12/11 21:03:03;;;;;;;4.88;1.83;;;;;;;17.93;75.35;100624.59;10378499;28;96878;-86
2023/12/11 21:08:08;;;;;;;4.47;2.47;;;;;;;17.79;76.06;100626.44;10379231;28;97076;-85
2023/12/11 21:13:13;;;;;;;4.78;2.53;;;;;;;17.70;76.54;100613.72;10393961;28;96752;-85
2023/12/11 21:18:17;;;;;;;4.07;2.08;;;;;;;17.81;76.21;100620.06;10395132;28;96651;-85
2023/12/11 21:23:22;;;;;;;4.75;2.17;;;;;;;17.84;76.17;100622.56;10378193;28;96710;-85
2023/12/11 21:28:26;;;;;;;4.18;2.10;;;;;;;17.94;75.74;100629.00;10391104;28;96584;-86
2023/12/11 21:33:29;;;;;;;5.07;2.40;;;;;;;17.96;75.69;100631.56;10377644;28;97058;-85
2023/12/11 21:38:34;;;;;;;3.35;2.00;;;;;;;18.05;75.31;100623.84;10377711;28;96708;-85
2023/12/11 21:43:39;;;;;;;3.05;1.30;;;;;;;18.24;74.36;100623.50;10378436;28;97587;-86
2023/12/11 21:48:43;;;;;;;3.10;2.30;;;;;;;18.22;74.34;100625.41;10385035;28;96697;-86
2023/12/11 21:53:49;;;;;;;5.03;1.83;;;;;;;18.27;74.35;100625.09;10423527;28;96826;-85
2023/12/11 21:58:52;;;;;;;4.03;1.60;;;;;;;18.36;73.96;100627.16;10424123;28;96813;-85
2023/12/11 22:03:56;;;;;;;3.50;1.20;;;;;;;18.37;73.87;100621.72;10384047;28;97122;-86
2023/12/11 22:09:01;;;;;;;2.92;2.33;;;;;;;18.42;73.72;100618.78;10399969;28;96642;-85
2023/12/11 22:14:04;;;;;;;4.15;1.92;;;;;;;18.40;73.82;100618.03;10423755;28;96808;-85
2023/12/11 22:19:10;;;;;;;5.95;1.40;;;;;;;18.33;74.13;100603.41;10396475;28;96599;-85
2023/12/11 22:24:17;;;;;;;4.63;1.88;;;;;;;18.29;74.27;100617.88;10381703;28;97391;-86
2023/12/11 22:29:21;;;;;;;2.40;1.23;;;;;;;18.25;74.78;100624.38;10382009;28;96687;-85
2023/12/11 22:34:24;;;;;;;4.40;1.58;;;;;;;18.26;74.51;100626.94;10389320;22;97238;-85
2023/12/11 22:39:31;;;;;;;4.90;1.50;;;;;;;18.16;75.04;100624.00;10462767;27;96818;-85
2023/12/11 22:44:34;;;;;;;2.63;1.27;;;;;;;18.25;74.83;100617.22;10465257;27;97467;-85
2023/12/11 22:49:38;;;;;;;2.92;1.40;;;;;;;18.24;74.86;100612.00;10464768;27;96672;-85
2023/12/11 22:54:43;;;;;;;3.65;1.80;;;;;;;17.99;75.64;100616.25;10464946;27;96745;-85
2023/12/11 22:59:47;;;;;;;4.70;1.95;;;;;;;17.93;76.16;100607.81;10465316;27;96946;-85
2023/12/11 23:04:51;;;;;;;3.60;1.80;;;;;;;17.92;76.07;100606.94;10463698;27;96567;-85
2023/12/11 23:09:56;;;;;;;5.32;2.85;;;;;;;17.64;77.10;100592.81;10463019;27;97299;-86
2023/12/11 23:15:00;;;;;;;4.40;1.77;;;;;;;17.73;77.19;100603.72;10464143;27;96564;-85
2023/12/11 23:20:05;;;;;;;3.60;1.70;;;;;;;17.77;76.64;100610.59;10463839;27;96662;-86
2023/12/11 23:25:10;;;;;;;4.65;1.92;;;;;;;17.79;76.98;100599.84;10464221;27;96890;-86
2023/12/11 23:30:14;;;;;;;2.80;1.45;;;;;;;17.77;77.02;100607.91;10462823;27;97431;-85
2023/12/11 23:35:18;;;;;;;4.27;2.07;;;;;;;17.66;77.75;100604.19;10463173;27;96948;-86
2023/12/11 23:40:23;;;;;;;2.23;1.50;;;;;;;17.76;77.14;100614.19;10463420;27;96756;-85
2023/12/11 23:45:26;;;;;;;5.28;2.05;;;;;;;17.61;77.97;100615.16;10463754;27;96836;-85
2023/12/11 23:50:30;;;;;;;3.42;1.52;;;;;;;17.72;77.77;100615.34;10462693;27;96988;-86
2023/12/11 23:55:35;;;;;;;3.42;1.98;;;;;;;17.71;77.76;100621.59;10463014;27;96998;-85
